sensor_id;sensor_type;location;lat;lon;timestamp;pressure;altitude;pressure_sealevel;temperature
73673;BMP280;61972;19.480;-99.240;2022-07-23T00:00:35;77683.53;;;30.47
73673;BMP280;61972;19.480;-99.240;2022-07-23T00:03:01;77685.59;;;30.46
73673;BMP280;61972;19.480;-99.240;2022-07-23T00:05:27;77686.16;;;30.47
73673;BMP280;61972;19.480;-99.240;2022-07-23T00:07:53;77692.97;;;30.46
73673;BMP280;61972;19.480;-99.240;2022-07-23T00:10:20;77690.34;;;30.46
73673;BMP280;61972;19.480;-99.240;2022-07-23T00:12:46;77697.81;;;30.48
73673;BMP280;61972;19.480;-99.240;2022-07-23T00:15:12;77694.63;;;30.47
73673;BMP280;61972;19.480;-99.240;2022-07-23T00:17:38;77688.38;;;30.49
73673;BMP280;61972;19.480;-99.240;2022-07-23T00:20:05;77689.34;;;30.47
73673;BMP280;61972;19.480;-99.240;2022-07-23T00:22:31;77695.19;;;30.48
73673;BMP280;61972;19.480;-99.240;2022-07-23T00:24:57;77699.34;;;30.47
73673;BMP280;61972;19.480;-99.240;2022-07-23T00:27:24;77702.00;;;30.47
73673;BMP280;61972;19.480;-99.240;2022-07-23T00:29:50;77704.06;;;30.46
73673;BMP280;61972;19.480;-99.240;2022-07-23T00:32:16;77710.91;;;30.45
73673;BMP280;61972;19.480;-99.240;2022-07-23T00:34:42;77711.84;;;30.44
73673;BMP280;61972;19.480;-99.240;2022-07-23T00:37:08;77717.69;;;30.44
73673;BMP280;61972;19.480;-99.240;2022-07-23T00:39:34;77715.06;;;30.44
73673;BMP280;61972;19.480;-99.240;2022-07-23T00:42:00;77712.41;;;30.44
73673;BMP280;61972;19.480;-99.240;2022-07-23T00:44:28;77707.00;;;30.42
73673;BMP280;61972;19.480;-99.240;2022-07-23T00:46:56;77721.72;;;30.41
73673;BMP280;61972;19.480;-99.240;2022-07-23T00:49:25;77722.81;;;30.42
73673;BMP280;61972;19.480;-99.240;2022-07-23T00:51:52;77719.66;;;30.41
73673;BMP280;61972;19.480;-99.240;2022-07-23T00:54:19;77719.06;;;30.41
73673;BMP280;61972;19.480;-99.240;2022-07-23T00:56:47;77726.44;;;30.40
73673;BMP280;61972;19.480;-99.240;2022-07-23T00:59:14;77722.16;;;30.39
73673;BMP280;61972;19.480;-99.240;2022-07-23T01:01:40;77724.81;;;30.39
73673;BMP280;61972;19.480;-99.240;2022-07-23T01:04:07;77721.59;;;30.38
73673;BMP280;61972;19.480;-99.240;2022-07-23T01:06:35;77733.66;;;30.37
73673;BMP280;61972;19.480;-99.240;2022-07-23T01:09:04;77743.69;;;30.37
73673;BMP280;61972;19.480;-99.240;2022-07-23T01:11:35;77738.81;;;30.34
73673;BMP280;61972;19.480;-99.240;2022-07-23T01:14:17;77752.00;;;30.34
73673;BMP280;61972;19.480;-99.240;2022-07-23T01:16:46;77758.81;;;30.33
73673;BMP280;61972;19.480;-99.240;2022-07-23T01:19:13;77764.09;;;30.33
73673;BMP280;61972;19.480;-99.240;2022-07-23T01:21:51;77777.69;;;30.31
73673;BMP280;61972;19.480;-99.240;2022-07-23T01:24:19;77776.59;;;30.30
73673;BMP280;61972;19.480;-99.240;2022-07-23T01:26:46;77775.47;;;30.29
73673;BMP280;61972;19.480;-99.240;2022-07-23T01:29:13;77780.19;;;30.29
73673;BMP280;61972;19.480;-99.240;2022-07-23T01:31:40;77777.00;;;30.28
73673;BMP280;61972;19.480;-99.240;2022-07-23T01:34:07;77780.63;;;30.27
73673;BMP280;61972;19.480;-99.240;2022-07-23T01:36:34;77781.06;;;30.25
73673;BMP280;61972;19.480;-99.240;2022-07-23T01:39:01;77790.47;;;30.24
73673;BMP280;61972;19.480;-99.240;2022-07-23T01:41:27;77799.38;;;30.22
73673;BMP280;61972;19.480;-99.240;2022-07-23T01:43:53;77803.53;;;30.21
73673;BMP280;61972;19.480;-99.240;2022-07-23T01:46:19;77809.38;;;30.22
73673;BMP280;61972;19.480;-99.240;2022-07-23T01:48:45;77820.47;;;30.22
73673;BMP280;61972;19.480;-99.240;2022-07-23T01:51:11;77819.34;;;30.21
73673;BMP280;61972;19.480;-99.240;2022-07-23T01:53:37;77819.91;;;30.22
73673;BMP280;61972;19.480;-99.240;2022-07-23T01:56:03;77831.03;;;30.22
73673;BMP280;61972;19.480;-99.240;2022-07-23T01:58:30;77842.25;;;30.25
73673;BMP280;61972;19.480;-99.240;2022-07-23T02:00:56;77846.41;;;30.24
73673;BMP280;61972;19.480;-99.240;2022-07-23T02:03:22;77849.47;;;30.22
73673;BMP280;61972;19.480;-99.240;2022-07-23T02:05:49;77844.59;;;30.20
73673;BMP280;61972;19.480;-99.240;2022-07-23T02:08:15;77852.09;;;30.22
73673;BMP280;61972;19.480;-99.240;2022-07-23T02:10:42;77847.25;;;30.20
73673;BMP280;61972;19.480;-99.240;2022-07-23T02:13:08;77855.16;;;30.20
73673;BMP280;61972;19.480;-99.240;2022-07-23T02:15:34;77853.50;;;30.19
73673;BMP280;61972;19.480;-99.240;2022-07-23T02:18:00;77857.09;;;30.17
73673;BMP280;61972;19.480;-99.240;2022-07-23T02:20:26;77856.56;;;30.16
73673;BMP280;61972;19.480;-99.240;2022-07-23T02:22:52;77856.56;;;30.16
73673;BMP280;61972;19.480;-99.240;2022-07-23T02:25:18;77858.22;;;30.18
73673;BMP280;61972;19.480;-99.240;2022-07-23T02:27:44;77854.06;;;30.19
73673;BMP280;61972;19.480;-99.240;2022-07-23T02:30:11;77856.25;;;30.21
73673;BMP280;61972;19.480;-99.240;2022-07-23T02:32:37;77849.47;;;30.22
73673;BMP280;61972;19.480;-99.240;2022-07-23T02:35:05;77851.00;;;30.21
73673;BMP280;61972;19.480;-99.240;2022-07-23T02:37:32;77846.84;;;30.22
73673;BMP280;61972;19.480;-99.240;2022-07-23T02:39:58;77854.31;;;30.24
73673;BMP280;61972;19.480;-99.240;2022-07-23T02:42:24;77841.56;;;30.22
73673;BMP280;61972;19.480;-99.240;2022-07-23T02:44:51;77846.84;;;30.22
73673;BMP280;61972;19.480;-99.240;2022-07-23T02:47:18;77849.47;;;30.22
73673;BMP280;61972;19.480;-99.240;2022-07-23T02:49:44;77852.09;;;30.22
73673;BMP280;61972;19.480;-99.240;2022-07-23T02:52:10;77846.84;;;30.22
73673;BMP280;61972;19.480;-99.240;2022-07-23T02:54:37;77845.72;;;30.21
73673;BMP280;61972;19.480;-99.240;2022-07-23T02:57:04;77841.41;;;30.20
73673;BMP280;61972;19.480;-99.240;2022-07-23T02:59:30;77840.31;;;30.19
73673;BMP280;61972;19.480;-99.240;2022-07-23T03:01:56;77839.75;;;30.18
73673;BMP280;61972;19.480;-99.240;2022-07-23T03:04:22;77842.38;;;30.18
73673;BMP280;61972;19.480;-99.240;2022-07-23T03:06:48;77842.38;;;30.18
73673;BMP280;61972;19.480;-99.240;2022-07-23T03:09:14;77837.53;;;30.16
73673;BMP280;61972;19.480;-99.240;2022-07-23T03:11:40;77850.72;;;30.16
73673;BMP280;61972;19.480;-99.240;2022-07-23T03:14:06;77851.13;;;30.14
73673;BMP280;61972;19.480;-99.240;2022-07-23T03:16:33;77859.03;;;30.14
73673;BMP280;61972;19.480;-99.240;2022-07-23T03:18:59;77859.03;;;30.14
73673;BMP280;61972;19.480;-99.240;2022-07-23T03:21:25;77867.38;;;30.12
73673;BMP280;61972;19.480;-99.240;2022-07-23T03:23:52;77871.53;;;30.11
73673;BMP280;61972;19.480;-99.240;2022-07-23T03:26:21;77875.72;;;30.10
73673;BMP280;61972;19.480;-99.240;2022-07-23T03:28:50;77884.56;;;30.08
73673;BMP280;61972;19.480;-99.240;2022-07-23T03:31:18;77877.66;;;30.07
73673;BMP280;61972;19.480;-99.240;2022-07-23T03:33:44;77881.81;;;30.06
73673;BMP280;61972;19.480;-99.240;2022-07-23T03:36:10;77883.34;;;30.05
73673;BMP280;61972;19.480;-99.240;2022-07-23T03:38:36;77882.22;;;30.04
73673;BMP280;61972;19.480;-99.240;2022-07-23T03:41:02;77877.94;;;30.02
73673;BMP280;61972;19.480;-99.240;2022-07-23T03:43:28;77886.25;;;30.00
73673;BMP280;61972;19.480;-99.240;2022-07-23T03:45:54;77877.81;;;30.00
73673;BMP280;61972;19.480;-99.240;2022-07-23T03:48:20;77885.72;;;30.00
73673;BMP280;61972;19.480;-99.240;2022-07-23T03:50:46;77884.59;;;29.99
73673;BMP280;61972;19.480;-99.240;2022-07-23T03:53:12;77894.03;;;29.97
73673;BMP280;61972;19.480;-99.240;2022-07-23T03:55:38;77902.34;;;29.95
73673;BMP280;61972;19.480;-99.240;2022-07-23T03:58:05;77898.59;;;29.94
73673;BMP280;61972;19.480;-99.240;2022-07-23T04:00:31;77901.13;;;29.92
73673;BMP280;61972;19.480;-99.240;2022-07-23T04:02:57;77908.88;;;29.89
73673;BMP280;61972;19.480;-99.240;2022-07-23T04:05:23;77913.59;;;29.89
73673;BMP280;61972;19.480;-99.240;2022-07-23T04:07:49;77918.84;;;29.89
73673;BMP280;61972;19.480;-99.240;2022-07-23T04:10:15;77927.31;;;29.89
73673;BMP280;61972;19.480;-99.240;2022-07-23T04:12:41;77936.72;;;29.88
73673;BMP280;61972;19.480;-99.240;2022-07-23T04:15:08;77940.88;;;29.87
73673;BMP280;61972;19.480;-99.240;2022-07-23T04:17:34;77946.59;;;29.85
73673;BMP280;61972;19.480;-99.240;2022-07-23T04:20:01;77948.53;;;29.82
73673;BMP280;61972;19.480;-99.240;2022-07-23T04:22:27;77960.03;;;29.81
73673;BMP280;61972;19.480;-99.240;2022-07-23T04:24:53;77959.91;;;29.78
73673;BMP280;61972;19.480;-99.240;2022-07-23T04:27:19;77952.00;;;29.78
73673;BMP280;61972;19.480;-99.240;2022-07-23T04:29:45;77955.03;;;29.76
73673;BMP280;61972;19.480;-99.240;2022-07-23T04:32:11;77959.19;;;29.75
73673;BMP280;61972;19.480;-99.240;2022-07-23T04:34:37;77971.69;;;29.72
73673;BMP280;61972;19.480;-99.240;2022-07-23T04:37:03;77967.34;;;29.70
73673;BMP280;61972;19.480;-99.240;2022-07-23T04:39:29;77971.50;;;29.69
73673;BMP280;61972;19.480;-99.240;2022-07-23T04:41:55;77979.59;;;29.72
73673;BMP280;61972;19.480;-99.240;2022-07-23T04:44:21;77973.19;;;29.71
73673;BMP280;61972;19.480;-99.240;2022-07-23T04:46:47;77977.47;;;29.72
73673;BMP280;61972;19.480;-99.240;2022-07-23T04:49:13;77976.94;;;29.72
73673;BMP280;61972;19.480;-99.240;2022-07-23T04:51:39;77984.84;;;29.72
73673;BMP280;61972;19.480;-99.240;2022-07-23T04:54:05;77981.66;;;29.71
73673;BMP280;61972;19.480;-99.240;2022-07-23T04:56:31;77972.09;;;29.70
73673;BMP280;61972;19.480;-99.240;2022-07-23T04:58:58;77973.63;;;29.69
73673;BMP280;61972;19.480;-99.240;2022-07-23T05:01:24;77989.41;;;29.69
73673;BMP280;61972;19.480;-99.240;2022-07-23T05:03:50;77990.38;;;29.67
73673;BMP280;61972;19.480;-99.240;2022-07-23T05:06:16;77990.94;;;29.68
73673;BMP280;61972;19.480;-99.240;2022-07-23T05:08:42;77993.03;;;29.67
73673;BMP280;61972;19.480;-99.240;2022-07-23T05:11:08;78004.66;;;29.68
73673;BMP280;61972;19.480;-99.240;2022-07-23T05:13:34;78003.00;;;29.67
73673;BMP280;61972;19.480;-99.240;2022-07-23T05:16:00;78008.25;;;29.67
73673;BMP280;61972;19.480;-99.240;2022-07-23T05:18:26;78008.66;;;29.65
73673;BMP280;61972;19.480;-99.240;2022-07-23T05:20:52;78004.38;;;29.63
73673;BMP280;61972;19.480;-99.240;2022-07-23T05:23:19;78000.22;;;29.64
73673;BMP280;61972;19.480;-99.240;2022-07-23T05:25:45;77996.63;;;29.66
73673;BMP280;61972;19.480;-99.240;2022-07-23T05:28:11;77992.88;;;29.65
73673;BMP280;61972;19.480;-99.240;2022-07-23T05:30:37;77987.19;;;29.67
73673;BMP280;61972;19.480;-99.240;2022-07-23T05:33:03;77988.72;;;29.66
73673;BMP280;61972;19.480;-99.240;2022-07-23T05:35:29;77980.81;;;29.66
73673;BMP280;61972;19.480;-99.240;2022-07-23T05:37:55;77974.44;;;29.65
73673;BMP280;61972;19.480;-99.240;2022-07-23T05:40:21;77963.91;;;29.65
73673;BMP280;61972;19.480;-99.240;2022-07-23T05:42:47;77957.50;;;29.64
73673;BMP280;61972;19.480;-99.240;2022-07-23T05:45:13;77967.50;;;29.63
73673;BMP280;61972;19.480;-99.240;2022-07-23T05:47:45;77960.56;;;29.62
73673;BMP280;61972;19.480;-99.240;2022-07-23T05:50:12;77956.81;;;29.61
73673;BMP280;61972;19.480;-99.240;2022-07-23T05:52:38;77952.53;;;29.59
73673;BMP280;61972;19.480;-99.240;2022-07-23T05:55:06;77958.34;;;29.59
73673;BMP280;61972;19.480;-99.240;2022-07-23T05:57:32;77961.94;;;29.58
73673;BMP280;61972;19.480;-99.240;2022-07-23T05:59:58;77956.13;;;29.57
73673;BMP280;61972;19.480;-99.240;2022-07-23T06:02:24;77947.13;;;29.56
73673;BMP280;61972;19.480;-99.240;2022-07-23T06:04:50;77942.25;;;29.54
73673;BMP280;61972;19.480;-99.240;2022-07-23T06:07:16;77946.41;;;29.53
73673;BMP280;61972;19.480;-99.240;2022-07-23T06:09:42;77944.19;;;29.51
73673;BMP280;61972;19.480;-99.240;2022-07-23T06:12:09;77948.91;;;29.51
73673;BMP280;61972;19.480;-99.240;2022-07-23T06:14:35;77948.91;;;29.51
73673;BMP280;61972;19.480;-99.240;2022-07-23T06:17:01;77953.06;;;29.50
73673;BMP280;61972;19.480;-99.240;2022-07-23T06:19:27;77950.84;;;29.48
73673;BMP280;61972;19.480;-99.240;2022-07-23T06:21:53;77960.81;;;29.47
73673;BMP280;61972;19.480;-99.240;2022-07-23T06:24:19;77955.41;;;29.45
73673;BMP280;61972;19.480;-99.240;2022-07-23T06:26:45;77957.50;;;29.44
73673;BMP280;61972;19.480;-99.240;2022-07-23T06:29:11;77950.53;;;29.43
73673;BMP280;61972;19.480;-99.240;2022-07-23T06:31:37;77948.34;;;29.40
73673;BMP280;61972;19.480;-99.240;2022-07-23T06:34:03;77937.81;;;29.40
73673;BMP280;61972;19.480;-99.240;2022-07-23T06:36:29;77939.47;;;29.42
73673;BMP280;61972;19.480;-99.240;2022-07-23T06:38:55;77930.03;;;29.43
73673;BMP280;61972;19.480;-99.240;2022-07-23T06:41:21;77932.28;;;29.45
73673;BMP280;61972;19.480;-99.240;2022-07-23T06:43:50;77927.41;;;29.43
73673;BMP280;61972;19.480;-99.240;2022-07-23T06:46:16;77921.03;;;29.42
73673;BMP280;61972;19.480;-99.240;2022-07-23T06:48:43;77915.38;;;29.44
73673;BMP280;61972;19.480;-99.240;2022-07-23T06:51:09;77911.75;;;29.46
73673;BMP280;61972;19.480;-99.240;2022-07-23T06:53:35;77907.06;;;29.46
73673;BMP280;61972;19.480;-99.240;2022-07-23T06:56:01;77909.25;;;29.48
73673;BMP280;61972;19.480;-99.240;2022-07-23T06:58:27;77897.63;;;29.47
73673;BMP280;61972;19.480;-99.240;2022-07-23T07:00:53;77898.72;;;29.48
73673;BMP280;61972;19.480;-99.240;2022-07-23T07:03:19;77892.38;;;29.47
73673;BMP280;61972;19.480;-99.240;2022-07-23T07:05:45;77901.78;;;29.46
73673;BMP280;61972;19.480;-99.240;2022-07-23T07:08:12;77901.78;;;29.46
73673;BMP280;61972;19.480;-99.240;2022-07-23T07:10:38;77899.00;;;29.44
73673;BMP280;61972;19.480;-99.240;2022-07-23T07:13:04;77908.16;;;29.47
73673;BMP280;61972;19.480;-99.240;2022-07-23T07:15:30;77908.44;;;29.52
73673;BMP280;61972;19.480;-99.240;2022-07-23T07:17:56;77904.56;;;29.58
73673;BMP280;61972;19.480;-99.240;2022-07-23T07:20:22;77897.09;;;29.66
73673;BMP280;61972;19.480;-99.240;2022-07-23T07:22:49;77900.56;;;29.72
73673;BMP280;61972;19.480;-99.240;2022-07-23T07:25:15;77904.03;;;29.77
73673;BMP280;61972;19.480;-99.240;2022-07-23T07:27:41;77898.47;;;29.82
73673;BMP280;61972;19.480;-99.240;2022-07-23T07:30:10;77900.28;;;29.86
73673;BMP280;61972;19.480;-99.240;2022-07-23T07:32:37;77903.59;;;29.89
73673;BMP280;61972;19.480;-99.240;2022-07-23T07:35:04;77907.50;;;29.93
73673;BMP280;61972;19.480;-99.240;2022-07-23T07:37:30;77902.34;;;29.95
73673;BMP280;61972;19.480;-99.240;2022-07-23T07:39:56;77904.56;;;29.97
73673;BMP280;61972;19.480;-99.240;2022-07-23T07:42:22;77906.78;;;30.00
73673;BMP280;61972;19.480;-99.240;2022-07-23T07:44:48;77894.16;;;30.00
73673;BMP280;61972;19.480;-99.240;2022-07-23T07:47:14;77899.00;;;30.02
73673;BMP280;61972;19.480;-99.240;2022-07-23T07:49:43;77902.75;;;30.03
73673;BMP280;61972;19.480;-99.240;2022-07-23T07:52:10;77903.31;;;30.04
73673;BMP280;61972;19.480;-99.240;2022-07-23T07:54:37;77902.19;;;30.03
73673;BMP280;61972;19.480;-99.240;2022-07-23T07:57:03;77899.00;;;30.02
73673;BMP280;61972;19.480;-99.240;2022-07-23T07:59:29;77898.47;;;30.02
73673;BMP280;61972;19.480;-99.240;2022-07-23T08:01:55;77895.81;;;30.02
73673;BMP280;61972;19.480;-99.240;2022-07-23T08:04:21;77894.72;;;30.01
73673;BMP280;61972;19.480;-99.240;2022-07-23T08:06:47;77905.13;;;29.98
73673;BMP280;61972;19.480;-99.240;2022-07-23T08:09:13;77893.34;;;29.94
73673;BMP280;61972;19.480;-99.240;2022-07-23T08:11:39;77897.91;;;29.91
73673;BMP280;61972;19.480;-99.240;2022-07-23T08:14:05;77893.47;;;29.87
73673;BMP280;61972;19.480;-99.240;2022-07-23T08:16:31;77900.41;;;29.79
73673;BMP280;61972;19.480;-99.240;2022-07-23T08:18:58;77893.88;;;29.75
73673;BMP280;61972;19.480;-99.240;2022-07-23T08:21:24;77897.63;;;29.76
73673;BMP280;61972;19.480;-99.240;2022-07-23T08:23:50;77899.31;;;29.78
73673;BMP280;61972;19.480;-99.240;2022-07-23T08:26:16;77904.56;;;29.78
73673;BMP280;61972;19.480;-99.240;2022-07-23T08:28:42;77899.31;;;29.78
73673;BMP280;61972;19.480;-99.240;2022-07-23T08:31:09;77893.50;;;29.77
73673;BMP280;61972;19.480;-99.240;2022-07-23T08:33:37;77891.25;;;29.75
73673;BMP280;61972;19.480;-99.240;2022-07-23T08:36:04;77882.66;;;29.72
73673;BMP280;61972;19.480;-99.240;2022-07-23T08:38:31;77879.19;;;29.67
73673;BMP280;61972;19.480;-99.240;2022-07-23T08:40:58;77883.75;;;29.64
73673;BMP280;61972;19.480;-99.240;2022-07-23T08:43:29;77881.00;;;29.61
73673;BMP280;61972;19.480;-99.240;2022-07-23T08:45:57;77881.97;;;29.59
73673;BMP280;61972;19.480;-99.240;2022-07-23T08:48:26;77871.31;;;29.57
73673;BMP280;61972;19.480;-99.240;2022-07-23T08:50:57;77868.50;;;29.54
73673;BMP280;61972;19.480;-99.240;2022-07-23T08:53:24;77862.53;;;29.51
73673;BMP280;61972;19.480;-99.240;2022-07-23T08:55:53;77868.22;;;29.49
73673;BMP280;61972;19.480;-99.240;2022-07-23T08:58:21;77870.75;;;29.47
73673;BMP280;61972;19.480;-99.240;2022-07-23T09:00:48;77879.63;;;29.45
73673;BMP280;61972;19.480;-99.240;2022-07-23T09:03:24;77879.44;;;29.43
73673;BMP280;61972;19.480;-99.240;2022-07-23T09:05:51;77865.06;;;29.39
73673;BMP280;61972;19.480;-99.240;2022-07-23T09:08:21;77866.44;;;29.35
73673;BMP280;61972;19.480;-99.240;2022-07-23T09:10:53;77865.75;;;29.32
73673;BMP280;61972;19.480;-99.240;2022-07-23T09:13:34;77864.50;;;29.29
73673;BMP280;61972;19.480;-99.240;2022-07-23T09:18:46;77864.59;;;29.21
73673;BMP280;61972;19.480;-99.240;2022-07-23T09:23:47;77872.22;;;29.16
73673;BMP280;61972;19.480;-99.240;2022-07-23T09:26:29;77875.28;;;29.14
73673;BMP280;61972;19.480;-99.240;2022-07-23T09:29:01;77871.38;;;29.11
73673;BMP280;61972;19.480;-99.240;2022-07-23T09:31:54;77863.22;;;29.06
73673;BMP280;61972;19.480;-99.240;2022-07-23T09:34:26;77855.72;;;29.03
73673;BMP280;61972;19.480;-99.240;2022-07-23T09:36:57;77862.34;;;29.00
73673;BMP280;61972;19.480;-99.240;2022-07-23T09:39:33;77862.75;;;28.98
73673;BMP280;61972;19.480;-99.240;2022-07-23T09:42:23;77865.69;;;28.93
73673;BMP280;61972;19.480;-99.240;2022-07-23T09:44:52;77873.03;;;28.93
73673;BMP280;61972;19.480;-99.240;2022-07-23T09:47:19;77874.38;;;28.89
73673;BMP280;61972;19.480;-99.240;2022-07-23T09:52:28;77875.63;;;28.83
73673;BMP280;61972;19.480;-99.240;2022-07-23T09:55:00;77876.56;;;28.81
73673;BMP280;61972;19.480;-99.240;2022-07-23T09:57:27;77875.88;;;28.78
73673;BMP280;61972;19.480;-99.240;2022-07-23T09:59:57;77880.59;;;28.78
73673;BMP280;61972;19.480;-99.240;2022-07-23T10:02:24;77886.81;;;28.76
73673;BMP280;61972;19.480;-99.240;2022-07-23T10:04:53;77881.41;;;28.74
73673;BMP280;61972;19.480;-99.240;2022-07-23T10:07:22;77876.00;;;28.71
73673;BMP280;61972;19.480;-99.240;2022-07-23T10:09:50;77872.25;;;28.70
73673;BMP280;61972;19.480;-99.240;2022-07-23T10:12:19;77877.38;;;28.68
73673;BMP280;61972;19.480;-99.240;2022-07-23T10:15:05;77870.44;;;28.66
73673;BMP280;61972;19.480;-99.240;2022-07-23T10:17:33;77867.66;;;28.63
73673;BMP280;61972;19.480;-99.240;2022-07-23T10:20:00;77873.88;;;28.62
73673;BMP280;61972;19.480;-99.240;2022-07-23T10:22:31;77876.53;;;28.62
73673;BMP280;61972;19.480;-99.240;2022-07-23T10:31:02;77888.25;;;28.56
73673;BMP280;61972;19.480;-99.240;2022-07-23T10:36:20;77872.19;;;28.51
73673;BMP280;61972;19.480;-99.240;2022-07-23T10:39:04;77882.56;;;28.48
73673;BMP280;61972;19.480;-99.240;2022-07-23T10:41:36;77889.31;;;28.47
73673;BMP280;61972;19.480;-99.240;2022-07-23T10:44:17;77887.66;;;28.45
73673;BMP280;61972;19.480;-99.240;2022-07-23T10:47:04;77890.69;;;28.43
73673;BMP280;61972;19.480;-99.240;2022-07-23T10:49:49;77879.06;;;28.42
73673;BMP280;61972;19.480;-99.240;2022-07-23T10:57:50;77893.44;;;28.36
73673;BMP280;61972;19.480;-99.240;2022-07-23T11:00:22;77896.47;;;28.34
73673;BMP280;61972;19.480;-99.240;2022-07-23T11:02:53;77892.72;;;28.33
73673;BMP280;61972;19.480;-99.240;2022-07-23T11:05:22;77899.47;;;28.32
73673;BMP280;61972;19.480;-99.240;2022-07-23T11:10:34;77900.31;;;28.28
73673;BMP280;61972;19.480;-99.240;2022-07-23T11:23:58;77902.47;;;28.20
73673;BMP280;61972;19.480;-99.240;2022-07-23T11:26:47;77899.13;;;28.17
73673;BMP280;61972;19.480;-99.240;2022-07-23T11:34:35;77906.88;;;28.15
73673;BMP280;61972;19.480;-99.240;2022-07-23T11:37:04;77906.16;;;28.12
73673;BMP280;61972;19.480;-99.240;2022-07-23T11:39:33;77907.09;;;28.10
73673;BMP280;61972;19.480;-99.240;2022-07-23T11:42:00;77900.75;;;28.09
73673;BMP280;61972;19.480;-99.240;2022-07-23T11:44:37;77906.97;;;28.07
73673;BMP280;61972;19.480;-99.240;2022-07-23T11:47:05;77910.56;;;28.06
73673;BMP280;61972;19.480;-99.240;2022-07-23T11:49:32;77911.50;;;28.04
73673;BMP280;61972;19.480;-99.240;2022-07-23T11:52:07;77916.75;;;28.04
73673;BMP280;61972;19.480;-99.240;2022-07-23T11:54:35;77921.44;;;28.04
73673;BMP280;61972;19.480;-99.240;2022-07-23T11:57:02;77919.81;;;28.02
73673;BMP280;61972;19.480;-99.240;2022-07-23T11:59:33;77918.69;;;28.01
73673;BMP280;61972;19.480;-99.240;2022-07-23T12:02:02;77916.47;;;27.99
73673;BMP280;61972;19.480;-99.240;2022-07-23T12:04:48;77922.09;;;27.97
73673;BMP280;61972;19.480;-99.240;2022-07-23T12:07:35;77927.75;;;27.95
73673;BMP280;61972;19.480;-99.240;2022-07-23T12:10:09;77930.25;;;27.93
73673;BMP280;61972;19.480;-99.240;2022-07-23T12:12:43;77934.91;;;27.92
73673;BMP280;61972;19.480;-99.240;2022-07-23T12:15:12;77933.81;;;27.91
73673;BMP280;61972;19.480;-99.240;2022-07-23T12:17:39;77933.66;;;27.88
73673;BMP280;61972;19.480;-99.240;2022-07-23T12:20:08;77940.97;;;27.88
73673;BMP280;61972;19.480;-99.240;2022-07-23T12:22:44;77935.56;;;27.85
73673;BMP280;61972;19.480;-99.240;2022-07-23T12:25:22;77948.16;;;27.85
73673;BMP280;61972;19.480;-99.240;2022-07-23T12:28:11;77950.63;;;27.82
73673;BMP280;61972;19.480;-99.240;2022-07-23T12:33:14;77946.72;;;27.79
73673;BMP280;61972;19.480;-99.240;2022-07-23T12:35:43;77950.84;;;27.78
73673;BMP280;61972;19.480;-99.240;2022-07-23T12:38:12;77966.06;;;27.77
73673;BMP280;61972;19.480;-99.240;2022-07-23T12:40:44;77965.34;;;27.74
73673;BMP280;61972;19.480;-99.240;2022-07-23T12:43:32;77966.28;;;27.73
73673;BMP280;61972;19.480;-99.240;2022-07-23T12:46:13;77970.59;;;27.74
73673;BMP280;61972;19.480;-99.240;2022-07-23T12:49:00;77982.06;;;27.73
73673;BMP280;61972;19.480;-99.240;2022-07-23T12:51:28;77986.19;;;27.72
73673;BMP280;61972;19.480;-99.240;2022-07-23T12:54:07;77989.78;;;27.70
73673;BMP280;61972;19.480;-99.240;2022-07-23T12:56:44;77986.56;;;27.69
73673;BMP280;61972;19.480;-99.240;2022-07-23T12:59:13;77993.34;;;27.68
73673;BMP280;61972;19.480;-99.240;2022-07-23T13:01:45;77991.69;;;27.67
73673;BMP280;61972;19.480;-99.240;2022-07-23T13:04:18;77993.19;;;27.66
73673;BMP280;61972;19.480;-99.240;2022-07-23T13:06:50;77994.13;;;27.64
73673;BMP280;61972;19.480;-99.240;2022-07-23T13:09:22;77988.34;;;27.64
73673;BMP280;61972;19.480;-99.240;2022-07-23T13:11:50;77992.47;;;27.63
73673;BMP280;61972;19.480;-99.240;2022-07-23T13:14:18;77987.22;;;27.63
73673;BMP280;61972;19.480;-99.240;2022-07-23T13:16:46;77986.09;;;27.62
73673;BMP280;61972;19.480;-99.240;2022-07-23T13:19:13;77979.19;;;27.60
73673;BMP280;61972;19.480;-99.240;2022-07-23T13:21:40;77981.25;;;27.60
73673;BMP280;61972;19.480;-99.240;2022-07-23T13:24:08;77980.13;;;27.59
73673;BMP280;61972;19.480;-99.240;2022-07-23T13:26:34;77978.06;;;27.59
73673;BMP280;61972;19.480;-99.240;2022-07-23T13:29:00;77974.34;;;27.58
73673;BMP280;61972;19.480;-99.240;2022-07-23T13:31:27;77977.34;;;27.56
73673;BMP280;61972;19.480;-99.240;2022-07-23T13:33:53;77971.13;;;27.58
73673;BMP280;61972;19.480;-99.240;2022-07-23T13:36:19;77965.34;;;27.57
73673;BMP280;61972;19.480;-99.240;2022-07-23T13:38:45;77964.22;;;27.56
73673;BMP280;61972;19.480;-99.240;2022-07-23T13:41:11;77974.16;;;27.56
73673;BMP280;61972;19.480;-99.240;2022-07-23T13:43:37;77969.88;;;27.54
73673;BMP280;61972;19.480;-99.240;2022-07-23T13:46:03;77965.72;;;27.55
73673;BMP280;61972;19.480;-99.240;2022-07-23T13:48:29;77963.09;;;27.55
73673;BMP280;61972;19.480;-99.240;2022-07-23T13:50:56;77962.00;;;27.54
73673;BMP280;61972;19.480;-99.240;2022-07-23T13:53:23;77962.00;;;27.54
73673;BMP280;61972;19.480;-99.240;2022-07-23T13:55:53;77962.00;;;27.54
73673;BMP280;61972;19.480;-99.240;2022-07-23T13:58:20;77950.38;;;27.53
73673;BMP280;61972;19.480;-99.240;2022-07-23T14:00:49;77950.94;;;27.54
73673;BMP280;61972;19.480;-99.240;2022-07-23T14:03:16;77945.69;;;27.54
73673;BMP280;61972;19.480;-99.240;2022-07-23T14:05:43;77944.56;;;27.52
73673;BMP280;61972;19.480;-99.240;2022-07-23T14:08:09;77937.25;;;27.53
73673;BMP280;61972;19.480;-99.240;2022-07-23T14:10:36;77940.28;;;27.51
73673;BMP280;61972;19.480;-99.240;2022-07-23T14:13:02;77938.75;;;27.52
73673;BMP280;61972;19.480;-99.240;2022-07-23T14:15:30;77938.75;;;27.52
73673;BMP280;61972;19.480;-99.240;2022-07-23T14:17:57;77947.59;;;27.50
73673;BMP280;61972;19.480;-99.240;2022-07-23T14:20:24;77942.91;;;27.51
73673;BMP280;61972;19.480;-99.240;2022-07-23T14:22:51;77949.81;;;27.52
73673;BMP280;61972;19.480;-99.240;2022-07-23T14:25:17;77942.34;;;27.50
73673;BMP280;61972;19.480;-99.240;2022-07-23T14:27:43;77935.03;;;27.51
73673;BMP280;61972;19.480;-99.240;2022-07-23T14:30:11;77931.84;;;27.50
73673;BMP280;61972;19.480;-99.240;2022-07-23T14:32:38;77933.34;;;27.49